Time;durP1;ratioP1;P1;durP2;ratioP2;P2;SDS_P1;SDS_P2;PMS_P1;PMS_P2;Temp;Humidity;BMP_temperature;BMP_pressure;BME280_temperature;BME280_humidity;BME280_pressure;Samples;Min_cycle;Max_cycle;Signal;HPM_P1;HPM_P2
2023/04/30 00:02:17;;;;;;;7.40;4.20;;;7.60;99.90;;;;;;5052403;28;20053;-79
2023/04/30 00:04:43;;;;;;;8.93;3.88;;;7.60;99.90;;;;;;5052576;28;20052;-82
2023/04/30 00:07:09;;;;;;;9.57;4.78;;;7.50;99.90;;;;;;5053789;28;20078;-81
2023/04/30 00:09:35;;;;;;;6.85;4.10;;;7.40;99.90;;;;;;5054241;28;20045;-80
2023/04/30 00:12:00;;;;;;;6.93;4.00;;;7.50;99.90;;;;;;5053491;28;20388;-82
2023/04/30 00:14:26;;;;;;;5.53;3.35;;;7.40;99.90;;;;;;5052751;28;20362;-82
2023/04/30 00:16:55;;;;;;;5.32;3.53;;;7.40;99.90;;;;;;5052469;28;20053;-77
2023/04/30 00:19:21;;;;;;;5.28;3.85;;;7.30;99.90;;;;;;5054015;28;20110;-81
2023/04/30 00:21:47;;;;;;;4.30;3.28;;;7.30;99.90;;;;;;5052605;28;20048;-79
2023/04/30 00:24:13;;;;;;;6.38;3.20;;;7.30;99.90;;;;;;5053193;28;20052;-81
2023/04/30 00:26:39;;;;;;;6.20;3.33;;;7.30;99.90;;;;;;5036691;28;20049;-81
2023/04/30 00:29:05;;;;;;;6.47;3.40;;;7.20;99.90;;;;;;5054806;28;20044;-76
2023/04/30 00:31:31;;;;;;;6.93;3.70;;;7.20;99.90;;;;;;5058234;28;20094;-78
2023/04/30 00:33:57;;;;;;;4.80;4.40;;;7.10;99.90;;;;;;5058995;28;20442;-76
2023/04/30 00:36:24;;;;;;;5.00;3.97;;;7.10;99.90;;;;;;5057941;28;20128;-81
2023/04/30 00:38:50;;;;;;;5.28;4.13;;;7.10;99.90;;;;;;5061205;28;20044;-81
2023/04/30 00:41:16;;;;;;;6.85;4.18;;;7.10;99.90;;;;;;5061666;28;20044;-80
2023/04/30 00:43:41;;;;;;;7.15;4.35;;;7.00;99.90;;;;;;5062169;28;20517;-81
2023/04/30 00:46:07;;;;;;;6.22;3.85;;;7.10;99.90;;;;;;5063357;28;20101;-77
2023/04/30 00:48:33;;;;;;;9.68;4.68;;;7.10;99.90;;;;;;5063119;28;20056;-79
2023/04/30 00:51:00;;;;;;;7.43;4.10;;;7.00;99.90;;;;;;5065967;28;20069;-78
2023/04/30 00:53:26;;;;;;;7.57;4.03;;;7.00;99.90;;;;;;5050958;28;20135;-78
2023/04/30 00:55:53;;;;;;;6.07;3.60;;;6.90;99.90;;;;;;5050608;28;20080;-75
2023/04/30 00:58:18;;;;;;;4.70;4.25;;;6.90;99.90;;;;;;5070305;28;20048;-79
2023/04/30 01:00:45;;;;;;;9.40;4.40;;;6.80;99.90;;;;;;5068850;28;20037;-76
2023/04/30 01:03:15;;;;;;;4.70;3.88;;;6.70;99.90;;;;;;5065635;28;20041;-79
2023/04/30 01:05:41;;;;;;;4.55;3.65;;;6.80;99.90;;;;;;5063668;28;20094;-79
2023/04/30 01:08:09;;;;;;;6.28;3.55;;;6.70;99.90;;;;;;5059483;28;20124;-78
2023/04/30 01:10:52;;;;;;;6.32;3.92;;;6.70;99.90;;;;;;5056369;28;20625;-80
2023/04/30 01:13:30;;;;;;;4.60;3.92;;;6.50;99.90;;;;;;5053495;28;20098;-80
2023/04/30 01:16:07;;;;;;;5.85;4.30;;;6.70;99.90;;;;;;5054192;28;20158;-78
2023/04/30 01:18:39;;;;;;;6.60;4.47;;;6.70;99.90;;;;;;5053023;28;20056;-78
2023/04/30 01:21:06;;;;;;;4.50;3.53;;;6.70;99.90;;;;;;5052779;28;20059;-80
2023/04/30 01:23:51;;;;;;;5.68;4.15;;;6.60;99.90;;;;;;5052767;28;20055;-78
2023/04/30 01:27:12;;;;;;;6.10;4.13;;;6.50;99.90;;;;;;5051046;28;20052;-78
2023/04/30 01:29:41;;;;;;;5.80;4.18;;;6.50;99.90;;;;;;5051614;28;20041;-80
2023/04/30 01:32:06;;;;;;;6.55;3.92;;;6.50;99.90;;;;;;5052804;28;20041;-80
2023/04/30 01:34:32;;;;;;;4.07;3.03;;;6.50;99.90;;;;;;5052825;28;20052;-77
2023/04/30 01:37:07;;;;;;;4.32;3.22;;;6.40;99.90;;;;;;5035141;28;20045;-81
2023/04/30 01:39:54;;;;;;;7.35;4.47;;;6.40;99.90;;;;;;5052241;28;20063;-80
2023/04/30 01:42:22;;;;;;;5.53;3.97;;;6.30;99.90;;;;;;5052575;28;20129;-82
2023/04/30 01:45:12;;;;;;;8.02;4.95;;;6.30;99.90;;;;;;5052625;28;20084;-82
2023/04/30 01:47:52;;;;;;;7.25;4.38;;;6.30;99.90;;;;;;5052234;28;20049;-82
2023/04/30 01:50:36;;;;;;;7.05;4.20;;;6.30;99.90;;;;;;5051350;28;20045;-78
2023/04/30 01:53:08;;;;;;;9.63;5.00;;;6.30;99.90;;;;;;5052348;28;20115;-80
2023/04/30 01:56:10;;;;;;;6.18;4.57;;;6.20;99.90;;;;;;5067393;28;20540;-80
2023/04/30 01:58:38;;;;;;;7.70;4.35;;;6.20;99.90;;;;;;4993757;28;20049;-80
2023/04/30 02:01:04;;;;;;;6.47;4.10;;;6.20;99.90;;;;;;5039217;28;20128;-80
2023/04/30 02:03:32;;;;;;;5.10;4.15;;;6.10;99.90;;;;;;5050863;28;20175;-81
2023/04/30 02:05:58;;;;;;;6.13;3.70;;;6.10;99.90;;;;;;5055719;28;20040;-80
2023/04/30 02:08:24;;;;;;;7.68;4.95;;;6.00;99.90;;;;;;5054832;28;20394;-82
2023/04/30 02:10:49;;;;;;;5.25;4.32;;;5.90;99.90;;;;;;5056096;28;20080;-78
2023/04/30 02:13:16;;;;;;;8.43;4.47;;;5.80;99.90;;;;;;5055814;28;20146;-80
2023/04/30 02:15:41;;;;;;;7.00;4.57;;;5.70;99.90;;;;;;5055162;28;20060;-80
2023/04/30 02:18:07;;;;;;;5.70;4.60;;;5.70;99.90;;;;;;5055838;28;20448;-78
2023/04/30 02:20:33;;;;;;;7.15;4.43;;;5.70;99.90;;;;;;5055437;28;20476;-81
2023/04/30 02:22:58;;;;;;;5.18;4.60;;;5.70;99.90;;;;;;5054886;28;20059;-79
2023/04/30 02:25:25;;;;;;;4.72;4.15;;;5.70;99.90;;;;;;5055564;28;20048;-80
2023/04/30 02:27:50;;;;;;;6.43;4.93;;;5.70;99.90;;;;;;5055581;28;20053;-80
2023/04/30 02:30:18;;;;;;;4.30;3.38;;;5.70;99.90;;;;;;5054365;28;20053;-79
2023/04/30 02:32:44;;;;;;;6.22;4.47;;;5.70;99.90;;;;;;5055390;28;20057;-80
2023/04/30 02:35:10;;;;;;;7.20;4.55;;;5.70;99.90;;;;;;5054268;28;20057;-82
2023/04/30 02:37:35;;;;;;;6.50;4.13;;;5.70;99.90;;;;;;5055346;28;20033;-80
2023/04/30 02:40:01;;;;;;;6.45;4.40;;;5.70;99.90;;;;;;5055678;28;20068;-81
2023/04/30 02:42:27;;;;;;;6.28;4.80;;;5.80;99.90;;;;;;5055101;28;20045;-79
2023/04/30 02:44:52;;;;;;;7.88;5.25;;;5.80;99.90;;;;;;5055142;28;20107;-78
2023/04/30 02:47:18;;;;;;;5.20;4.70;;;5.80;99.90;;;;;;5053938;28;20048;-82
2023/04/30 02:49:44;;;;;;;6.75;5.15;;;5.80;99.90;;;;;;5055163;28;20045;-82
2023/04/30 02:52:09;;;;;;;12.63;4.80;;;5.80;99.90;;;;;;5054977;28;20127;-80
2023/04/30 02:54:35;;;;;;;7.25;4.22;;;5.60;99.90;;;;;;5054949;28;20041;-82
2023/04/30 02:57:01;;;;;;;7.13;4.88;;;5.50;99.90;;;;;;5054902;28;20049;-79
2023/04/30 02:59:26;;;;;;;5.82;4.95;;;5.40;99.90;;;;;;5054929;28;20045;-81
2023/04/30 03:01:52;;;;;;;8.20;5.57;;;5.50;99.90;;;;;;5055253;28;20063;-79
2023/04/30 03:04:18;;;;;;;7.00;4.13;;;5.50;99.90;;;;;;5055120;28;20090;-80
2023/04/30 03:06:43;;;;;;;7.28;4.05;;;5.50;99.90;;;;;;5054708;28;20114;-80
2023/04/30 03:09:09;;;;;;;6.90;4.38;;;5.50;99.90;;;;;;5054318;28;20048;-81
2023/04/30 03:11:36;;;;;;;5.72;4.45;;;5.60;99.90;;;;;;5054599;28;20075;-80
2023/04/30 03:14:03;;;;;;;7.80;4.60;;;5.60;99.90;;;;;;5054583;28;20049;-80
2023/04/30 03:16:29;;;;;;;9.75;5.10;;;5.80;99.90;;;;;;5054012;28;20504;-81
2023/04/30 03:18:56;;;;;;;9.25;4.85;;;6.20;99.90;;;;;;5054454;28;20049;-76
2023/04/30 03:21:21;;;;;;;4.82;4.18;;;5.60;99.90;;;;;;5054554;28;20053;-80
2023/04/30 03:23:47;;;;;;;10.52;4.75;;;5.50;99.90;;;;;;5054421;28;20056;-79
2023/04/30 03:26:13;;;;;;;6.20;4.72;;;5.40;99.90;;;;;;5054799;28;20088;-80
2023/04/30 03:28:39;;;;;;;6.65;5.30;;;5.40;99.90;;;;;;5054321;28;20132;-81
2023/04/30 03:31:04;;;;;;;6.65;4.30;;;5.40;99.90;;;;;;5054243;28;20124;-81
2023/04/30 03:33:31;;;;;;;6.75;4.22;;;5.50;99.90;;;;;;5054892;28;20515;-80
2023/04/30 03:35:57;;;;;;;8.75;4.47;;;5.50;99.90;;;;;;5054393;28;20646;-79
2023/04/30 03:38:23;;;;;;;9.52;4.97;;;5.60;99.90;;;;;;5054117;28;20071;-82
2023/04/30 03:40:48;;;;;;;6.75;4.57;;;5.70;99.90;;;;;;5054137;28;20048;-81
2023/04/30 03:43:14;;;;;;;7.15;5.18;;;5.60;99.90;;;;;;5054052;28;20048;-81
2023/04/30 03:45:40;;;;;;;6.97;4.70;;;5.50;99.90;;;;;;5054053;28;20146;-83
2023/04/30 03:48:06;;;;;;;7.97;4.78;;;5.50;99.90;;;;;;5054678;28;20132;-80
2023/04/30 03:50:31;;;;;;;7.28;5.13;;;5.40;99.90;;;;;;5053974;28;20597;-78
2023/04/30 03:52:57;;;;;;;9.88;4.95;;;5.50;99.90;;;;;;5053951;28;20543;-79
2023/04/30 03:55:22;;;;;;;7.43;4.68;;;5.60;99.90;;;;;;5052975;28;20048;-80
2023/04/30 03:57:48;;;;;;;7.35;4.00;;;5.70;99.90;;;;;;5053791;28;20103;-79
2023/04/30 04:00:14;;;;;;;7.68;4.95;;;5.80;99.90;;;;;;5054224;28;20106;-80
2023/04/30 04:02:40;;;;;;;6.13;4.90;;;5.80;99.90;;;;;;5053817;28;20103;-82
2023/04/30 04:05:06;;;;;;;5.30;4.80;;;5.70;99.90;;;;;;5053798;28;20045;-80
2023/04/30 04:07:32;;;;;;;9.60;5.10;;;5.60;99.90;;;;;;5052953;28;20053;-79
2023/04/30 04:09:58;;;;;;;8.88;4.90;;;5.50;99.90;;;;;;5054262;28;20068;-80
2023/04/30 04:12:23;;;;;;;6.60;5.50;;;5.50;99.90;;;;;;5054148;28;20071;-82
2023/04/30 04:14:49;;;;;;;6.65;5.63;;;5.50;99.90;;;;;;5054371;28;20054;-78
2023/04/30 04:17:15;;;;;;;7.30;5.32;;;5.60;99.90;;;;;;5035402;28;20489;-82
2023/04/30 04:19:41;;;;;;;9.55;5.40;;;5.60;99.90;;;;;;5052659;28;20045;-80
2023/04/30 04:22:06;;;;;;;8.88;4.97;;;5.60;99.90;;;;;;5053175;28;20072;-79
2023/04/30 04:24:32;;;;;;;8.05;5.47;;;5.60;99.90;;;;;;5053452;28;20044;-78
2023/04/30 04:27:01;;;;;;;5.70;5.13;;;5.60;99.90;;;;;;5035011;28;20048;-77
2023/04/30 04:29:27;;;;;;;8.40;5.07;;;5.70;99.90;;;;;;5052892;28;20049;-80
2023/04/30 04:31:54;;;;;;;8.57;5.95;;;5.70;99.90;;;;;;5053159;28;20055;-81
2023/04/30 04:34:20;;;;;;;6.80;5.35;;;5.60;99.90;;;;;;5019943;28;20528;-81
2023/04/30 04:36:46;;;;;;;9.27;5.88;;;5.50;99.90;;;;;;5053200;28;20110;-82
2023/04/30 04:39:12;;;;;;;7.30;5.90;;;5.40;99.90;;;;;;5053271;28;20049;-79
2023/04/30 04:41:38;;;;;;;6.45;5.78;;;5.40;99.90;;;;;;5053590;28;20053;-79
2023/04/30 04:44:04;;;;;;;9.90;6.55;;;5.40;99.90;;;;;;5051818;28;20056;-80
2023/04/30 04:46:30;;;;;;;7.70;5.82;;;5.40;99.90;;;;;;5051944;28;20045;-82
2023/04/30 04:48:57;;;;;;;8.00;6.88;;;5.30;99.90;;;;;;5052970;28;20056;-82
2023/04/30 04:51:23;;;;;;;7.18;6.20;;;5.40;99.90;;;;;;5051550;28;20045;-80
2023/04/30 04:53:49;;;;;;;7.63;6.18;;;5.40;99.90;;;;;;5052222;28;20383;-82
2023/04/30 04:56:15;;;;;;;7.82;6.57;;;5.50;99.90;;;;;;5053211;28;20095;-82
2023/04/30 04:58:41;;;;;;;8.23;6.68;;;5.60;99.90;;;;;;5051513;28;20091;-79
2023/04/30 05:01:08;;;;;;;12.30;8.18;;;5.70;99.90;;;;;;5052765;28;20049;-78
2023/04/30 05:03:37;;;;;;;9.65;8.65;;;5.70;99.90;;;;;;5052004;28;20397;-81
2023/04/30 05:06:04;;;;;;;8.27;7.47;;;5.90;99.90;;;;;;5052487;28;20098;-80
2023/04/30 05:08:30;;;;;;;8.52;7.35;;;5.90;99.90;;;;;;5052629;28;20048;-82
2023/04/30 05:10:56;;;;;;;9.70;7.57;;;6.00;99.90;;;;;;5052954;28;20440;-78
2023/04/30 05:13:22;;;;;;;9.63;6.68;;;6.00;99.90;;;;;;5052523;28;20049;-80
2023/04/30 05:15:52;;;;;;;12.77;8.05;;;6.10;99.90;;;;;;5052531;28;20044;-80
2023/04/30 05:18:18;;;;;;;8.93;7.07;;;6.10;99.90;;;;;;5052915;28;20056;-77
2023/04/30 05:20:44;;;;;;;14.68;8.38;;;6.10;99.90;;;;;;5052841;28;20112;-79
2023/04/30 05:23:10;;;;;;;10.45;7.93;;;6.10;99.90;;;;;;5052477;28;20081;-82
2023/04/30 05:25:36;;;;;;;9.98;7.82;;;6.20;99.90;;;;;;5052488;28;20049;-80
2023/04/30 05:28:02;;;;;;;11.48;7.55;;;6.20;99.90;;;;;;5051579;28;20495;-80
2023/04/30 05:30:28;;;;;;;12.70;8.30;;;6.30;99.90;;;;;;5052645;28;20045;-77
2023/04/30 05:32:55;;;;;;;11.60;8.60;;;6.30;99.90;;;;;;5052483;28;20053;-82
2023/04/30 05:35:21;;;;;;;13.50;8.55;;;6.40;99.90;;;;;;5052308;28;20544;-82
2023/04/30 05:37:47;;;;;;;12.73;8.57;;;6.50;99.90;;;;;;5052592;28;20045;-80
2023/04/30 05:40:13;;;;;;;15.68;9.70;;;6.70;99.90;;;;;;5038242;28;20128;-79
2023/04/30 05:42:40;;;;;;;13.05;8.45;;;6.80;99.90;;;;;;5055877;28;20112;-82
2023/04/30 05:45:07;;;;;;;11.95;8.55;;;7.00;99.90;;;;;;5056638;28;20103;-79
2023/04/30 05:47:32;;;;;;;10.57;8.93;;;7.10;99.90;;;;;;5056104;28;20572;-78
2023/04/30 05:49:58;;;;;;;13.25;7.82;;;7.10;99.90;;;;;;5056329;28;20053;-76
2023/04/30 05:52:24;;;;;;;10.00;7.43;;;7.20;99.90;;;;;;5054589;28;20041;-82
2023/04/30 05:54:49;;;;;;;12.07;7.70;;;7.20;99.90;;;;;;5056454;28;20049;-76
2023/04/30 05:57:15;;;;;;;9.45;6.85;;;7.30;99.90;;;;;;5056476;28;20045;-80
2023/04/30 05:59:41;;;;;;;11.85;6.95;;;7.40;99.90;;;;;;5056068;28;20045;-82
2023/04/30 06:02:08;;;;;;;15.48;5.88;;;7.40;99.90;;;;;;5055977;28;20041;-78
2023/04/30 06:04:33;;;;;;;9.95;6.35;;;7.40;99.90;;;;;;5055995;28;20045;-80
2023/04/30 06:06:59;;;;;;;11.82;6.28;;;7.50;99.90;;;;;;5055568;28;20045;-82
2023/04/30 06:09:25;;;;;;;8.80;6.53;;;7.60;99.90;;;;;;5056226;28;20044;-81
2023/04/30 06:11:50;;;;;;;12.27;6.40;;;7.80;99.90;;;;;;5055729;28;20052;-81
2023/04/30 06:14:17;;;;;;;12.52;6.95;;;8.10;99.90;;;;;;5055708;28;20049;-79
2023/04/30 06:16:44;;;;;;;10.38;7.22;;;8.20;99.90;;;;;;5054301;28;20066;-79
2023/04/30 06:19:10;;;;;;;9.65;5.25;;;8.30;99.90;;;;;;5056070;28;20053;-80
2023/04/30 06:21:36;;;;;;;8.88;6.35;;;8.40;99.90;;;;;;5055813;28;20049;-80
2023/04/30 06:24:02;;;;;;;10.02;6.53;;;8.40;99.90;;;;;;5055590;28;20508;-81
2023/04/30 06:26:28;;;;;;;12.45;6.30;;;8.50;99.90;;;;;;5055522;28;20128;-79
2023/04/30 06:28:53;;;;;;;10.25;6.13;;;8.60;99.90;;;;;;5055459;28;20080;-82
2023/04/30 06:31:20;;;;;;;8.98;5.90;;;8.80;99.90;;;;;;5055469;28;20098;-79
2023/04/30 06:33:45;;;;;;;11.00;5.68;;;9.00;99.90;;;;;;5054988;28;20045;-80
2023/04/30 06:36:12;;;;;;;12.02;5.85;;;9.10;99.90;;;;;;5055398;28;20136;-82
2023/04/30 06:38:37;;;;;;;11.15;5.13;;;9.20;99.90;;;;;;5055338;28;20053;-79
2023/04/30 06:41:03;;;;;;;13.68;5.47;;;9.30;99.90;;;;;;5038016;28;20439;-81
2023/04/30 06:43:29;;;;;;;10.77;5.53;;;9.40;99.90;;;;;;5055634;28;20466;-80
2023/04/30 06:45:54;;;;;;;6.65;5.00;;;9.60;99.90;;;;;;5055350;28;20048;-78
2023/04/30 06:48:20;;;;;;;9.30;4.97;;;9.80;99.90;;;;;;5053978;28;20056;-81
2023/04/30 06:50:46;;;;;;;7.45;4.07;;;10.20;99.90;;;;;;5054207;28;20048;-81
2023/04/30 06:53:12;;;;;;;5.90;4.25;;;11.20;99.90;;;;;;5055103;28;20093;-81
2023/04/30 06:55:37;;;;;;;11.20;3.97;;;12.70;99.90;;;;;;5054974;28;20057;-77
2023/04/30 06:58:04;;;;;;;4.20;3.50;;;13.90;99.90;;;;;;5055322;28;20501;-80
2023/04/30 07:00:31;;;;;;;9.52;3.90;;;14.90;99.90;;;;;;5055239;28;20462;-81
2023/04/30 07:02:59;;;;;;;7.78;2.85;;;15.70;99.90;;;;;;5053674;28;20067;-81
2023/04/30 07:05:25;;;;;;;4.97;2.80;;;16.10;99.90;;;;;;5055141;28;20055;-81
2023/04/30 07:07:51;;;;;;;9.15;3.28;;;15.40;99.90;;;;;;5055316;28;20076;-80
2023/04/30 07:10:17;;;;;;;4.97;2.85;;;14.70;99.90;;;;;;5037539;28;20206;-78
2023/04/30 07:12:43;;;;;;;5.53;2.88;;;14.00;99.90;;;;;;5054499;28;20128;-80
2023/04/30 07:15:10;;;;;;;9.68;3.67;;;13.50;99.90;;;;;;5054837;28;20059;-79
2023/04/30 07:17:36;;;;;;;6.38;3.17;;;13.10;99.90;;;;;;5054078;28;20055;-81
2023/04/30 07:20:03;;;;;;;9.63;4.10;;;12.80;99.90;;;;;;5054597;28;20053;-81
2023/04/30 07:22:32;;;;;;;8.55;2.83;;;12.40;99.90;;;;;;5054711;28;20041;-80
2023/04/30 07:24:58;;;;;;;5.10;3.17;;;12.20;99.90;;;;;;5053744;28;20053;-80
2023/04/30 07:27:23;;;;;;;6.50;3.28;;;12.00;99.90;;;;;;5054526;28;20052;-81
2023/04/30 07:29:50;;;;;;;7.53;3.15;;;11.90;99.90;;;;;;5054980;28;20047;-80
2023/04/30 07:32:15;;;;;;;6.35;3.20;;;11.90;99.90;;;;;;5054251;28;20465;-79
2023/04/30 07:34:42;;;;;;;5.25;3.35;;;11.80;99.90;;;;;;5054775;28;20053;-80
2023/04/30 07:37:08;;;;;;;11.70;3.53;;;11.90;99.90;;;;;;5054367;28;20044;-77
2023/04/30 07:39:35;;;;;;;7.18;3.50;;;12.20;99.90;;;;;;5053367;28;20099;-80
2023/04/30 07:42:02;;;;;;;12.07;3.40;;;12.90;99.90;;;;;;5054150;28;20047;-79
2023/04/30 07:44:27;;;;;;;4.68;2.80;;;13.60;99.90;;;;;;5052858;28;20106;-79
2023/04/30 07:46:53;;;;;;;8.70;3.10;;;13.80;99.90;;;;;;5054673;28;20049;-79
2023/04/30 07:49:19;;;;;;;6.53;2.83;;;14.10;99.90;;;;;;5054189;28;20434;-77
2023/04/30 07:51:45;;;;;;;3.25;2.75;;;14.90;99.90;;;;;;5054375;28;20532;-80
2023/04/30 07:54:11;;;;;;;5.47;3.20;;;15.60;99.90;;;;;;5053949;28;20045;-80
2023/04/30 07:56:37;;;;;;;5.32;2.88;;;15.50;99.90;;;;;;5054419;28;20057;-81
2023/04/30 07:59:03;;;;;;;5.85;2.70;;;15.30;99.80;;;;;;5052669;28;20520;-81
2023/04/30 08:01:28;;;;;;;6.63;2.97;;;15.00;99.90;;;;;;5053491;28;20183;-81
2023/04/30 08:03:54;;;;;;;5.80;2.65;;;15.00;99.90;;;;;;5053040;28;20041;-85
2023/04/30 08:06:20;;;;;;;8.15;3.05;;;15.20;99.90;;;;;;5052697;28;20499;-79
2023/04/30 08:08:46;;;;;;;6.88;3.45;;;15.00;99.90;;;;;;5054051;28;20110;-80
2023/04/30 08:11:12;;;;;;;7.18;3.55;;;15.30;99.90;;;;;;5052121;28;20059;-80
2023/04/30 08:13:37;;;;;;;6.25;4.13;;;15.20;99.90;;;;;;5053440;28;20049;-78
2023/04/30 08:16:03;;;;;;;5.15;2.75;;;15.20;99.80;;;;;;5051780;28;20045;-81
2023/04/30 08:18:31;;;;;;;10.13;3.53;;;15.40;99.90;;;;;;5053834;28;20084;-81
2023/04/30 08:20:56;;;;;;;8.80;3.45;;;15.90;99.90;;;;;;5052118;28;20052;-81
2023/04/30 08:23:22;;;;;;;5.78;2.67;;;15.50;99.60;;;;;;5053549;28;20049;-78
2023/04/30 08:25:48;;;;;;;9.25;3.78;;;14.80;99.90;;;;;;5053638;28;20056;-79
2023/04/30 08:28:13;;;;;;;5.72;2.70;;;14.20;99.90;;;;;;5053087;28;20132;-77
2023/04/30 08:30:39;;;;;;;7.53;3.20;;;13.90;99.90;;;;;;5053088;28;20044;-81
2023/04/30 08:33:05;;;;;;;4.07;2.70;;;13.70;99.90;;;;;;5051927;28;20047;-79
2023/04/30 08:35:30;;;;;;;4.18;2.72;;;14.00;99.90;;;;;;5053094;28;20474;-79
2023/04/30 08:37:57;;;;;;;7.40;2.70;;;14.30;99.90;;;;;;5053081;28;20052;-80
2023/04/30 08:40:22;;;;;;;6.50;2.58;;;14.70;99.90;;;;;;5053139;28;20080;-78
2023/04/30 08:43:04;;;;;;;6.85;2.70;;;15.20;99.90;;;;;;5052935;28;20428;-79
2023/04/30 08:45:31;;;;;;;5.07;2.65;;;15.50;96.70;;;;;;5053201;28;20527;-79
2023/04/30 08:47:59;;;;;;;5.30;2.25;;;15.70;99.40;;;;;;5052889;28;20110;-78
2023/04/30 08:50:28;;;;;;;5.30;2.47;;;16.40;98.00;;;;;;5052892;28;20045;-79
2023/04/30 08:52:54;;;;;;;5.65;3.40;;;17.20;98.30;;;;;;5053036;28;20049;-80
2023/04/30 08:55:19;;;;;;;5.47;3.00;;;17.60;96.90;;;;;;5052812;28;20045;-81
2023/04/30 08:57:45;;;;;;;6.70;2.78;;;18.20;97.00;;;;;;5052762;28;20095;-81
2023/04/30 09:00:11;;;;;;;6.80;2.78;;;18.70;95.80;;;;;;5052315;28;20509;-79
2023/04/30 09:02:41;;;;;;;5.90;2.55;;;18.70;95.30;;;;;;5052940;28;20060;-78
2023/04/30 09:05:12;;;;;;;8.70;3.08;;;18.80;94.90;;;;;;5052625;28;20092;-80
2023/04/30 09:07:42;;;;;;;4.03;2.85;;;18.40;94.60;;;;;;5052719;28;20506;-77
2023/04/30 09:10:18;;;;;;;7.40;2.92;;;17.80;93.70;;;;;;5035160;28;20053;-79
2023/04/30 09:12:58;;;;;;;9.23;2.53;;;17.90;91.80;;;;;;5052364;28;20088;-80
2023/04/30 09:15:24;;;;;;;6.47;2.58;;;17.90;92.60;;;;;;5052493;28;20049;-79
2023/04/30 09:17:49;;;;;;;5.70;2.95;;;17.40;95.50;;;;;;5052756;28;20049;-78
2023/04/30 09:20:16;;;;;;;5.47;2.60;;;17.30;95.20;;;;;;5052704;28;20041;-80
2023/04/30 09:22:42;;;;;;;6.95;3.22;;;17.10;94.70;;;;;;5052941;28;20060;-80
2023/04/30 09:25:10;;;;;;;5.65;2.33;;;16.70;94.80;;;;;;5053286;28;20060;-83
2023/04/30 09:27:35;;;;;;;3.90;2.50;;;16.60;95.50;;;;;;5052508;28;20052;-84
2023/04/30 09:30:01;;;;;;;7.93;2.67;;;16.50;94.50;;;;;;5052404;28;20041;-84
2023/04/30 09:32:27;;;;;;;5.72;2.58;;;16.50;94.20;;;;;;5051119;28;20045;-85
2023/04/30 09:34:54;;;;;;;4.65;3.03;;;16.50;94.60;;;;;;5052281;28;20120;-88
2023/04/30 09:37:20;;;;;;;4.75;2.60;;;16.60;94.30;;;;;;5054433;28;20197;-83
2023/04/30 09:39:51;;;;;;;7.72;3.08;;;16.80;94.40;;;;;;5056065;28;20049;-83
2023/04/30 09:42:18;;;;;;;6.18;2.80;;;16.70;93.80;;;;;;5057152;28;20070;-83
2023/04/30 09:44:44;;;;;;;7.28;2.97;;;16.70;94.10;;;;;;5056477;28;20167;-84
2023/04/30 09:47:19;;;;;;;5.25;2.60;;;17.00;94.00;;;;;;5053040;28;20045;-82
2023/04/30 09:49:52;;;;;;;4.35;2.08;;;17.30;93.20;;;;;;5052613;28;20045;-85
2023/04/30 09:52:19;;;;;;;5.57;2.67;;;17.50;93.30;;;;;;5052241;28;20056;-83
2023/04/30 09:54:46;;;;;;;5.05;2.70;;;17.60;93.40;;;;;;5052524;28;20049;-87
2023/04/30 09:57:14;;;;;;;9.15;3.00;;;17.50;92.70;;;;;;5052328;28;20440;-85
2023/04/30 09:59:44;;;;;;;5.47;2.72;;;17.30;92.90;;;;;;5052314;28;20048;-78
2023/04/30 10:02:16;;;;;;;4.35;3.42;;;17.40;92.20;;;;;;5052456;28;20419;-83
2023/04/30 10:04:43;;;;;;;5.15;3.10;;;17.40;92.40;;;;;;5051077;28;20395;-82
2023/04/30 10:07:18;;;;;;;4.43;2.90;;;17.50;92.60;;;;;;5052398;28;20120;-82
2023/04/30 10:09:54;;;;;;;5.47;2.83;;;17.60;92.60;;;;;;5052485;28;20048;-82
2023/04/30 10:12:28;;;;;;;4.80;2.67;;;17.70;92.10;;;;;;5052357;28;20055;-81
2023/04/30 10:14:59;;;;;;;3.72;2.58;;;17.00;91.00;;;;;;5052153;28;20045;-83
2023/04/30 10:17:29;;;;;;;6.43;2.78;;;17.00;92.00;;;;;;5051997;28;20482;-80
2023/04/30 10:20:04;;;;;;;6.60;2.50;;;17.40;93.30;;;;;;5052544;28;20056;-81
2023/04/30 10:22:30;;;;;;;3.60;2.38;;;17.60;91.90;;;;;;5050941;28;20052;-81
2023/04/30 10:24:56;;;;;;;3.92;2.60;;;18.10;92.80;;;;;;5052055;28;20516;-81
2023/04/30 10:27:21;;;;;;;4.60;2.97;;;18.70;92.30;;;;;;5055883;28;20529;-80
2023/04/30 10:29:49;;;;;;;4.05;2.80;;;18.50;91.30;;;;;;5054191;28;20486;-79
2023/04/30 10:32:15;;;;;;;5.57;3.08;;;18.60;91.10;;;;;;5055267;28;20052;-79
2023/04/30 10:35:11;;;;;;;3.53;2.53;;;18.80;91.90;;;;;;5055770;28;20102;-79
2023/04/30 10:37:47;;;;;;;3.88;3.47;;;18.60;86.70;;;;;;5054519;28;20475;-79
2023/04/30 10:40:13;;;;;;;2.90;2.45;;;18.40;91.20;;;;;;5055338;28;20110;-78
2023/04/30 10:42:46;;;;;;;4.38;2.65;;;18.20;91.20;;;;;;5055337;28;20045;-78
2023/04/30 10:45:11;;;;;;;6.13;3.05;;;18.90;91.20;;;;;;5037863;28;20045;-77
2023/04/30 10:47:41;;;;;;;6.80;3.33;;;19.00;91.50;;;;;;5055236;28;20415;-80
2023/04/30 10:50:10;;;;;;;5.78;3.88;;;18.70;91.30;;;;;;5055179;28;20044;-79
2023/04/30 10:52:37;;;;;;;3.72;2.50;;;18.50;91.70;;;;;;5054951;28;20049;-77
2023/04/30 10:55:04;;;;;;;3.70;2.88;;;18.70;91.70;;;;;;5054082;28;20052;-80
2023/04/30 10:57:30;;;;;;;5.20;2.63;;;18.20;91.20;;;;;;5036940;28;20474;-79
2023/04/30 11:00:08;;;;;;;5.65;3.10;;;17.70;91.50;;;;;;5054945;28;20049;-77
2023/04/30 11:02:42;;;;;;;5.90;3.13;;;17.60;90.00;;;;;;5055035;28;20044;-78
2023/04/30 11:05:10;;;;;;;7.15;3.28;;;17.20;91.00;;;;;;5055272;28;20081;-77
2023/04/30 11:07:36;;;;;;;4.78;2.88;;;16.80;91.30;;;;;;5053478;28;20516;-76
2023/04/30 11:10:03;;;;;;;3.20;2.72;;;16.70;91.60;;;;;;5055080;28;20051;-76
2023/04/30 11:12:28;;;;;;;5.80;3.00;;;16.30;91.60;;;;;;5054549;28;20049;-76
2023/04/30 11:15:15;;;;;;;4.40;3.42;;;16.10;91.60;;;;;;5054650;28;20567;-76
2023/04/30 11:17:44;;;;;;;6.22;3.78;;;16.10;91.90;;;;;;5054602;28;20131;-76
2023/04/30 11:20:13;;;;;;;4.43;2.90;;;16.10;92.40;;;;;;5054768;28;20045;-77
2023/04/30 11:22:39;;;;;;;6.85;3.22;;;16.00;91.10;;;;;;5054394;28;20041;-77
2023/04/30 11:25:08;;;;;;;5.57;3.53;;;16.10;91.60;;;;;;5053402;28;20053;-77
2023/04/30 11:27:43;;;;;;;5.45;3.78;;;16.20;91.30;;;;;;5054345;28;20064;-78
2023/04/30 11:30:13;;;;;;;8.30;3.00;;;16.30;91.20;;;;;;5054866;28;20067;-78
2023/04/30 11:32:40;;;;;;;7.95;3.08;;;16.10;91.10;;;;;;5054458;28;20040;-78
2023/04/30 11:35:06;;;;;;;4.25;3.40;;;15.80;90.90;;;;;;5054485;28;20052;-76
2023/04/30 11:37:42;;;;;;;4.13;2.42;;;16.00;91.20;;;;;;5053742;28;20124;-76
2023/04/30 11:40:10;;;;;;;3.40;2.55;;;15.90;91.10;;;;;;5054042;28;20082;-77
2023/04/30 11:42:38;;;;;;;5.45;3.35;;;16.00;91.50;;;;;;5052719;28;20398;-78
2023/04/30 11:45:04;;;;;;;5.97;3.50;;;16.10;91.60;;;;;;5053014;28;20128;-77
2023/04/30 11:47:53;;;;;;;4.07;2.78;;;16.10;91.90;;;;;;5053415;28;20508;-77
2023/04/30 11:50:26;;;;;;;3.28;2.40;;;16.20;91.50;;;;;;5054080;28;20116;-76
2023/04/30 11:52:53;;;;;;;3.83;2.92;;;16.10;91.80;;;;;;5053942;28;20485;-75
2023/04/30 11:55:21;;;;;;;5.18;3.10;;;15.90;91.80;;;;;;5053586;28;20124;-75
2023/04/30 11:57:55;;;;;;;3.72;3.13;;;16.20;92.20;;;;;;5053673;28;20482;-74
2023/04/30 12:00:28;;;;;;;4.85;2.97;;;16.90;92.50;;;;;;5053560;28;20045;-76
2023/04/30 12:02:54;;;;;;;7.15;3.25;;;16.60;91.90;;;;;;5055075;28;20045;-77
2023/04/30 12:05:25;;;;;;;5.55;3.85;;;16.70;91.80;;;;;;5054929;28;20052;-76
2023/04/30 12:08:03;;;;;;;7.53;3.20;;;16.60;91.50;;;;;;5053175;28;20418;-76
2023/04/30 12:10:30;;;;;;;3.28;2.97;;;16.70;92.20;;;;;;5053522;28;20128;-76
2023/04/30 12:12:56;;;;;;;4.97;3.60;;;16.70;92.20;;;;;;5052472;28;20076;-75
2023/04/30 12:15:26;;;;;;;5.70;3.22;;;16.80;92.20;;;;;;5053143;28;20495;-76
2023/04/30 12:17:54;;;;;;;4.70;3.03;;;16.70;92.10;;;;;;5053046;28;20072;-75
2023/04/30 12:20:22;;;;;;;4.10;3.60;;;16.80;91.90;;;;;;5053274;28;20053;-76
2023/04/30 12:22:48;;;;;;;6.45;4.10;;;17.00;91.90;;;;;;5052120;28;20381;-74
2023/04/30 12:25:16;;;;;;;5.75;3.78;;;16.90;91.30;;;;;;5053674;28;20131;-78
2023/04/30 12:27:46;;;;;;;5.68;3.45;;;16.60;92.00;;;;;;5052999;28;20045;-79
2023/04/30 12:30:12;;;;;;;6.00;4.15;;;16.60;92.10;;;;;;5035582;28;20053;-76
2023/04/30 12:32:42;;;;;;;6.45;3.92;;;16.70;92.20;;;;;;5052268;28;20106;-74
2023/04/30 12:35:14;;;;;;;5.00;3.20;;;16.90;91.90;;;;;;5053016;28;20080;-77
2023/04/30 12:37:50;;;;;;;5.88;3.67;;;17.10;91.80;;;;;;5053022;28;20048;-75
2023/04/30 12:40:18;;;;;;;4.15;3.10;;;17.00;90.80;;;;;;5052973;28;20508;-75
2023/04/30 12:42:45;;;;;;;3.20;2.90;;;16.70;91.40;;;;;;5051843;28;20474;-76
2023/04/30 12:45:12;;;;;;;4.85;3.20;;;16.80;91.60;;;;;;5051404;28;20059;-74
2023/04/30 12:47:42;;;;;;;7.38;3.42;;;16.80;91.80;;;;;;5052433;28;20052;-76
2023/04/30 12:50:11;;;;;;;3.78;3.33;;;17.10;91.90;;;;;;5052212;28;20049;-76
2023/04/30 12:52:39;;;;;;;3.50;3.13;;;17.20;91.90;;;;;;5052687;28;20041;-75
2023/04/30 12:55:18;;;;;;;6.97;3.33;;;17.10;91.60;;;;;;5052637;28;20120;-76